sensor_id;sensor_type;location;lat;lon;timestamp;P1;durP1;ratioP1;P2;durP2;ratioP2
50092;SDS011;35974;47.752;10.290;2022-07-23T00:01:05;13.27;;;7.88;;
50092;SDS011;35974;47.752;10.290;2022-07-23T00:03:31;13.75;;;7.45;;
50092;SDS011;35974;47.752;10.290;2022-07-23T00:05:58;10.48;;;6.30;;
50092;SDS011;35974;47.752;10.290;2022-07-23T00:08:24;10.93;;;4.90;;
50092;SDS011;35974;47.752;10.290;2022-07-23T00:10:51;8.93;;;4.45;;
50092;SDS011;35974;47.752;10.290;2022-07-23T00:13:17;6.85;;;4.38;;
50092;SDS011;35974;47.752;10.290;2022-07-23T00:15:43;8.13;;;5.43;;
50092;SDS011;35974;47.752;10.290;2022-07-23T00:18:10;13.13;;;5.60;;
50092;SDS011;35974;47.752;10.290;2022-07-23T00:20:36;7.55;;;5.82;;
50092;SDS011;35974;47.752;10.290;2022-07-23T00:23:03;8.27;;;6.20;;
50092;SDS011;35974;47.752;10.290;2022-07-23T00:25:29;7.53;;;5.97;;
50092;SDS011;35974;47.752;10.290;2022-07-23T00:27:57;9.95;;;6.97;;
50092;SDS011;35974;47.752;10.290;2022-07-23T00:30:25;9.95;;;7.45;;
50092;SDS011;35974;47.752;10.290;2022-07-23T00:32:53;13.68;;;8.27;;
50092;SDS011;35974;47.752;10.290;2022-07-23T00:35:23;12.30;;;8.10;;
50092;SDS011;35974;47.752;10.290;2022-07-23T00:37:52;12.27;;;8.50;;
50092;SDS011;35974;47.752;10.290;2022-07-23T00:40:19;13.75;;;8.50;;
50092;SDS011;35974;47.752;10.290;2022-07-23T00:42:45;12.10;;;8.52;;
50092;SDS011;35974;47.752;10.290;2022-07-23T00:45:12;10.05;;;8.02;;
50092;SDS011;35974;47.752;10.290;2022-07-23T00:47:38;15.70;;;8.43;;
50092;SDS011;35974;47.752;10.290;2022-07-23T00:50:06;10.52;;;8.02;;
50092;SDS011;35974;47.752;10.290;2022-07-23T00:52:35;13.63;;;7.72;;
50092;SDS011;35974;47.752;10.290;2022-07-23T00:55:03;10.35;;;7.65;;
50092;SDS011;35974;47.752;10.290;2022-07-23T00:57:30;10.68;;;7.60;;
50092;SDS011;35974;47.752;10.290;2022-07-23T00:59:57;14.70;;;8.00;;
50092;SDS011;35974;47.752;10.290;2022-07-23T01:02:27;13.98;;;7.03;;
50092;SDS011;35974;47.752;10.290;2022-07-23T01:04:53;10.70;;;7.10;;
50092;SDS011;35974;47.752;10.290;2022-07-23T01:07:20;9.02;;;7.00;;
50092;SDS011;35974;47.752;10.290;2022-07-23T01:09:47;11.77;;;6.93;;
50092;SDS011;35974;47.752;10.290;2022-07-23T01:12:16;10.77;;;7.22;;
50092;SDS011;35974;47.752;10.290;2022-07-23T01:14:43;7.82;;;6.75;;
50092;SDS011;35974;47.752;10.290;2022-07-23T01:17:10;13.50;;;6.10;;
50092;SDS011;35974;47.752;10.290;2022-07-23T01:19:36;10.30;;;6.13;;
50092;SDS011;35974;47.752;10.290;2022-07-23T01:22:03;7.47;;;5.90;;
50092;SDS011;35974;47.752;10.290;2022-07-23T01:24:30;9.10;;;6.63;;
50092;SDS011;35974;47.752;10.290;2022-07-23T01:26:57;10.15;;;6.15;;
50092;SDS011;35974;47.752;10.290;2022-07-23T01:29:23;8.10;;;6.20;;
50092;SDS011;35974;47.752;10.290;2022-07-23T01:31:49;9.05;;;6.07;;
50092;SDS011;35974;47.752;10.290;2022-07-23T01:34:16;7.05;;;5.85;;
50092;SDS011;35974;47.752;10.290;2022-07-23T01:36:43;10.27;;;6.25;;
50092;SDS011;35974;47.752;10.290;2022-07-23T01:39:09;8.18;;;6.45;;
50092;SDS011;35974;47.752;10.290;2022-07-23T01:41:36;9.32;;;6.10;;
50092;SDS011;35974;47.752;10.290;2022-07-23T01:44:03;8.82;;;6.22;;
50092;SDS011;35974;47.752;10.290;2022-07-23T01:46:29;8.07;;;6.20;;
50092;SDS011;35974;47.752;10.290;2022-07-23T01:48:56;8.18;;;6.47;;
50092;SDS011;35974;47.752;10.290;2022-07-23T01:51:22;11.90;;;6.53;;
50092;SDS011;35974;47.752;10.290;2022-07-23T01:53:49;11.73;;;7.78;;
50092;SDS011;35974;47.752;10.290;2022-07-23T01:56:15;8.77;;;6.63;;
50092;SDS011;35974;47.752;10.290;2022-07-23T01:58:42;10.55;;;6.47;;
50092;SDS011;35974;47.752;10.290;2022-07-23T02:01:08;8.32;;;6.05;;
50092;SDS011;35974;47.752;10.290;2022-07-23T02:03:35;11.00;;;6.43;;
50092;SDS011;35974;47.752;10.290;2022-07-23T02:06:02;8.90;;;6.63;;
50092;SDS011;35974;47.752;10.290;2022-07-23T02:08:28;9.10;;;7.00;;
50092;SDS011;35974;47.752;10.290;2022-07-23T02:10:55;13.10;;;7.05;;
50092;SDS011;35974;47.752;10.290;2022-07-23T02:13:21;9.10;;;6.90;;
50092;SDS011;35974;47.752;10.290;2022-07-23T02:15:48;8.82;;;6.80;;
50092;SDS011;35974;47.752;10.290;2022-07-23T02:18:15;12.10;;;7.47;;
50092;SDS011;35974;47.752;10.290;2022-07-23T02:20:42;9.90;;;6.70;;
50092;SDS011;35974;47.752;10.290;2022-07-23T02:23:10;10.50;;;6.88;;
50092;SDS011;35974;47.752;10.290;2022-07-23T02:25:37;9.63;;;7.13;;
50092;SDS011;35974;47.752;10.290;2022-07-23T02:28:03;9.40;;;7.03;;
50092;SDS011;35974;47.752;10.290;2022-07-23T02:30:30;8.63;;;5.65;;
50092;SDS011;35974;47.752;10.290;2022-07-23T02:32:56;7.18;;;5.60;;
50092;SDS011;35974;47.752;10.290;2022-07-23T02:35:23;6.95;;;5.10;;
50092;SDS011;35974;47.752;10.290;2022-07-23T02:37:49;7.72;;;5.45;;
50092;SDS011;35974;47.752;10.290;2022-07-23T02:40:16;8.43;;;5.93;;
50092;SDS011;35974;47.752;10.290;2022-07-23T02:42:43;8.35;;;6.63;;
50092;SDS011;35974;47.752;10.290;2022-07-23T02:45:10;7.15;;;5.80;;
50092;SDS011;35974;47.752;10.290;2022-07-23T02:47:37;7.82;;;6.13;;
50092;SDS011;35974;47.752;10.290;2022-07-23T02:50:03;9.35;;;6.07;;
50092;SDS011;35974;47.752;10.290;2022-07-23T02:52:31;7.05;;;5.88;;
50092;SDS011;35974;47.752;10.290;2022-07-23T02:54:58;7.53;;;6.53;;
50092;SDS011;35974;47.752;10.290;2022-07-23T02:57:24;7.45;;;6.40;;
50092;SDS011;35974;47.752;10.290;2022-07-23T02:59:51;10.52;;;7.38;;
50092;SDS011;35974;47.752;10.290;2022-07-23T03:02:17;8.10;;;6.60;;
50092;SDS011;35974;47.752;10.290;2022-07-23T03:04:43;10.00;;;6.60;;
50092;SDS011;35974;47.752;10.290;2022-07-23T03:07:10;10.10;;;7.07;;
50092;SDS011;35974;47.752;10.290;2022-07-23T03:09:37;8.73;;;6.88;;
50092;SDS011;35974;47.752;10.290;2022-07-23T03:12:03;8.77;;;6.55;;
50092;SDS011;35974;47.752;10.290;2022-07-23T03:14:35;7.18;;;6.47;;
50092;SDS011;35974;47.752;10.290;2022-07-23T03:17:02;9.25;;;6.97;;
50092;SDS011;35974;47.752;10.290;2022-07-23T03:19:28;9.52;;;6.55;;
50092;SDS011;35974;47.752;10.290;2022-07-23T03:21:54;7.82;;;6.30;;
50092;SDS011;35974;47.752;10.290;2022-07-23T03:24:21;8.10;;;6.55;;
50092;SDS011;35974;47.752;10.290;2022-07-23T03:26:49;7.93;;;6.57;;
50092;SDS011;35974;47.752;10.290;2022-07-23T03:29:18;10.05;;;7.30;;
50092;SDS011;35974;47.752;10.290;2022-07-23T03:31:44;7.93;;;6.68;;
50092;SDS011;35974;47.752;10.290;2022-07-23T03:34:11;8.82;;;6.90;;
50092;SDS011;35974;47.752;10.290;2022-07-23T03:36:37;7.10;;;6.10;;
50092;SDS011;35974;47.752;10.290;2022-07-23T03:39:04;9.98;;;6.72;;
50092;SDS011;35974;47.752;10.290;2022-07-23T03:41:30;10.45;;;7.00;;
50092;SDS011;35974;47.752;10.290;2022-07-23T03:43:57;7.45;;;6.65;;
50092;SDS011;35974;47.752;10.290;2022-07-23T03:46:23;12.00;;;7.10;;
50092;SDS011;35974;47.752;10.290;2022-07-23T03:48:50;9.45;;;7.43;;
50092;SDS011;35974;47.752;10.290;2022-07-23T03:51:23;8.95;;;6.78;;
50092;SDS011;35974;47.752;10.290;2022-07-23T03:53:50;10.00;;;7.60;;
50092;SDS011;35974;47.752;10.290;2022-07-23T03:56:16;19.20;;;13.80;;
50092;SDS011;35974;47.752;10.290;2022-07-23T03:58:42;19.05;;;12.57;;
50092;SDS011;35974;47.752;10.290;2022-07-23T04:01:10;11.40;;;8.10;;
50092;SDS011;35974;47.752;10.290;2022-07-23T04:03:36;10.38;;;8.63;;
50092;SDS011;35974;47.752;10.290;2022-07-23T04:06:03;8.73;;;7.50;;
50092;SDS011;35974;47.752;10.290;2022-07-23T04:08:30;10.15;;;7.53;;
50092;SDS011;35974;47.752;10.290;2022-07-23T04:10:56;9.98;;;7.85;;
50092;SDS011;35974;47.752;10.290;2022-07-23T04:13:23;11.55;;;8.13;;
50092;SDS011;35974;47.752;10.290;2022-07-23T04:15:49;9.98;;;7.80;;
50092;SDS011;35974;47.752;10.290;2022-07-23T04:18:17;9.45;;;8.20;;
50092;SDS011;35974;47.752;10.290;2022-07-23T04:20:44;10.70;;;8.25;;
50092;SDS011;35974;47.752;10.290;2022-07-23T04:23:11;10.63;;;8.45;;
50092;SDS011;35974;47.752;10.290;2022-07-23T04:25:38;10.10;;;8.38;;
50092;SDS011;35974;47.752;10.290;2022-07-23T04:28:04;11.35;;;9.18;;
50092;SDS011;35974;47.752;10.290;2022-07-23T04:30:31;11.73;;;8.80;;
50092;SDS011;35974;47.752;10.290;2022-07-23T04:32:57;11.27;;;8.25;;
50092;SDS011;35974;47.752;10.290;2022-07-23T04:35:24;12.32;;;8.80;;
50092;SDS011;35974;47.752;10.290;2022-07-23T04:37:50;10.07;;;7.97;;
50092;SDS011;35974;47.752;10.290;2022-07-23T04:40:17;10.25;;;7.85;;
50092;SDS011;35974;47.752;10.290;2022-07-23T04:42:44;10.52;;;7.60;;
50092;SDS011;35974;47.752;10.290;2022-07-23T04:45:10;13.10;;;8.02;;
50092;SDS011;35974;47.752;10.290;2022-07-23T04:47:39;9.55;;;7.90;;
50092;SDS011;35974;47.752;10.290;2022-07-23T04:50:05;10.50;;;7.97;;
50092;SDS011;35974;47.752;10.290;2022-07-23T04:52:32;8.95;;;7.15;;
50092;SDS011;35974;47.752;10.290;2022-07-23T04:54:58;11.13;;;7.47;;
50092;SDS011;35974;47.752;10.290;2022-07-23T04:57:25;10.93;;;7.80;;
50092;SDS011;35974;47.752;10.290;2022-07-23T04:59:51;9.20;;;8.05;;
50092;SDS011;35974;47.752;10.290;2022-07-23T05:02:18;9.20;;;7.75;;
50092;SDS011;35974;47.752;10.290;2022-07-23T05:04:44;11.45;;;8.15;;
50092;SDS011;35974;47.752;10.290;2022-07-23T05:07:11;9.07;;;7.88;;
50092;SDS011;35974;47.752;10.290;2022-07-23T05:09:38;12.23;;;8.48;;
50092;SDS011;35974;47.752;10.290;2022-07-23T05:12:04;9.38;;;7.72;;
50092;SDS011;35974;47.752;10.290;2022-07-23T05:14:31;11.02;;;8.48;;
50092;SDS011;35974;47.752;10.290;2022-07-23T05:16:57;10.20;;;7.78;;
50092;SDS011;35974;47.752;10.290;2022-07-23T05:19:24;8.45;;;7.43;;
50092;SDS011;35974;47.752;10.290;2022-07-23T05:21:50;10.15;;;8.20;;
50092;SDS011;35974;47.752;10.290;2022-07-23T05:24:17;10.77;;;8.10;;
50092;SDS011;35974;47.752;10.290;2022-07-23T05:26:43;9.77;;;7.80;;
50092;SDS011;35974;47.752;10.290;2022-07-23T05:29:10;9.88;;;8.18;;
50092;SDS011;35974;47.752;10.290;2022-07-23T05:31:36;11.70;;;8.32;;
50092;SDS011;35974;47.752;10.290;2022-07-23T05:34:03;10.45;;;8.38;;
50092;SDS011;35974;47.752;10.290;2022-07-23T05:36:31;11.50;;;8.05;;
50092;SDS011;35974;47.752;10.290;2022-07-23T05:39:03;8.95;;;7.63;;
50092;SDS011;35974;47.752;10.290;2022-07-23T05:41:30;9.63;;;8.43;;
50092;SDS011;35974;47.752;10.290;2022-07-23T05:43:57;11.50;;;9.13;;
50092;SDS011;35974;47.752;10.290;2022-07-23T05:46:25;10.00;;;8.75;;
50092;SDS011;35974;47.752;10.290;2022-07-23T05:48:52;11.98;;;8.98;;
50092;SDS011;35974;47.752;10.290;2022-07-23T05:51:19;13.00;;;8.80;;
50092;SDS011;35974;47.752;10.290;2022-07-23T05:53:47;10.32;;;8.48;;
50092;SDS011;35974;47.752;10.290;2022-07-23T05:56:14;11.20;;;8.55;;
50092;SDS011;35974;47.752;10.290;2022-07-23T05:58:40;10.48;;;8.77;;
50092;SDS011;35974;47.752;10.290;2022-07-23T06:01:07;10.90;;;9.15;;
50092;SDS011;35974;47.752;10.290;2022-07-23T06:03:33;13.27;;;9.55;;
50092;SDS011;35974;47.752;10.290;2022-07-23T06:06:00;12.75;;;9.70;;
50092;SDS011;35974;47.752;10.290;2022-07-23T06:08:27;11.50;;;9.02;;
50092;SDS011;35974;47.752;10.290;2022-07-23T06:10:53;14.13;;;9.40;;
50092;SDS011;35974;47.752;10.290;2022-07-23T06:13:19;12.15;;;9.25;;
50092;SDS011;35974;47.752;10.290;2022-07-23T06:15:46;12.00;;;9.45;;
50092;SDS011;35974;47.752;10.290;2022-07-23T06:18:13;10.15;;;8.50;;
50092;SDS011;35974;47.752;10.290;2022-07-23T06:20:39;10.00;;;8.48;;
50092;SDS011;35974;47.752;10.290;2022-07-23T06:23:06;12.13;;;9.35;;
50092;SDS011;35974;47.752;10.290;2022-07-23T06:25:32;12.40;;;9.60;;
50092;SDS011;35974;47.752;10.290;2022-07-23T06:27:59;10.57;;;8.50;;
50092;SDS011;35974;47.752;10.290;2022-07-23T06:30:26;9.45;;;8.13;;
50092;SDS011;35974;47.752;10.290;2022-07-23T06:32:53;11.40;;;8.60;;
50092;SDS011;35974;47.752;10.290;2022-07-23T06:35:19;12.18;;;10.15;;
50092;SDS011;35974;47.752;10.290;2022-07-23T06:37:46;11.88;;;8.88;;
50092;SDS011;35974;47.752;10.290;2022-07-23T06:40:13;10.45;;;8.73;;
50092;SDS011;35974;47.752;10.290;2022-07-23T06:42:40;10.45;;;8.85;;
50092;SDS011;35974;47.752;10.290;2022-07-23T06:45:07;10.30;;;8.57;;
50092;SDS011;35974;47.752;10.290;2022-07-23T06:47:34;11.77;;;8.93;;
50092;SDS011;35974;47.752;10.290;2022-07-23T06:50:00;9.95;;;8.50;;
50092;SDS011;35974;47.752;10.290;2022-07-23T06:52:27;10.68;;;8.70;;
50092;SDS011;35974;47.752;10.290;2022-07-23T06:54:53;13.65;;;9.65;;
50092;SDS011;35974;47.752;10.290;2022-07-23T06:57:19;12.60;;;9.20;;
50092;SDS011;35974;47.752;10.290;2022-07-23T06:59:46;12.57;;;9.63;;
50092;SDS011;35974;47.752;10.290;2022-07-23T07:02:18;9.52;;;8.45;;
50092;SDS011;35974;47.752;10.290;2022-07-23T07:04:45;12.68;;;9.32;;
50092;SDS011;35974;47.752;10.290;2022-07-23T07:07:11;10.10;;;8.80;;
50092;SDS011;35974;47.752;10.290;2022-07-23T07:09:38;9.40;;;7.82;;
50092;SDS011;35974;47.752;10.290;2022-07-23T07:12:05;10.02;;;8.43;;
50092;SDS011;35974;47.752;10.290;2022-07-23T07:14:31;10.60;;;8.68;;
50092;SDS011;35974;47.752;10.290;2022-07-23T07:16:58;12.27;;;8.82;;
50092;SDS011;35974;47.752;10.290;2022-07-23T07:19:24;9.05;;;8.13;;
50092;SDS011;35974;47.752;10.290;2022-07-23T07:21:51;12.23;;;8.80;;
50092;SDS011;35974;47.752;10.290;2022-07-23T07:24:17;10.30;;;8.88;;
50092;SDS011;35974;47.752;10.290;2022-07-23T07:26:44;11.40;;;8.77;;
50092;SDS011;35974;47.752;10.290;2022-07-23T07:29:12;9.52;;;8.30;;
50092;SDS011;35974;47.752;10.290;2022-07-23T07:31:38;11.75;;;9.52;;
50092;SDS011;35974;47.752;10.290;2022-07-23T07:34:05;10.85;;;9.32;;
50092;SDS011;35974;47.752;10.290;2022-07-23T07:36:32;12.30;;;9.57;;
50092;SDS011;35974;47.752;10.290;2022-07-23T07:38:59;10.57;;;8.65;;
50092;SDS011;35974;47.752;10.290;2022-07-23T07:41:26;10.93;;;9.00;;
50092;SDS011;35974;47.752;10.290;2022-07-23T07:43:53;11.25;;;8.80;;
50092;SDS011;35974;47.752;10.290;2022-07-23T07:46:19;11.85;;;8.75;;
50092;SDS011;35974;47.752;10.290;2022-07-23T07:48:46;10.73;;;8.73;;
50092;SDS011;35974;47.752;10.290;2022-07-23T07:51:12;9.13;;;7.90;;
50092;SDS011;35974;47.752;10.290;2022-07-23T07:53:39;10.23;;;9.13;;
50092;SDS011;35974;47.752;10.290;2022-07-23T07:56:05;10.95;;;8.18;;
50092;SDS011;35974;47.752;10.290;2022-07-23T07:58:33;9.18;;;7.88;;
50092;SDS011;35974;47.752;10.290;2022-07-23T08:01:01;10.60;;;8.38;;
50092;SDS011;35974;47.752;10.290;2022-07-23T08:03:28;11.48;;;9.30;;
50092;SDS011;35974;47.752;10.290;2022-07-23T08:05:56;10.13;;;8.85;;
50092;SDS011;35974;47.752;10.290;2022-07-23T08:08:22;10.38;;;8.27;;
50092;SDS011;35974;47.752;10.290;2022-07-23T08:10:49;14.93;;;9.20;;
50092;SDS011;35974;47.752;10.290;2022-07-23T08:13:16;11.02;;;8.77;;
50092;SDS011;35974;47.752;10.290;2022-07-23T08:15:43;11.63;;;9.18;;
50092;SDS011;35974;47.752;10.290;2022-07-23T08:18:12;9.75;;;8.68;;
50092;SDS011;35974;47.752;10.290;2022-07-23T08:20:38;10.40;;;8.57;;
50092;SDS011;35974;47.752;10.290;2022-07-23T08:23:06;10.52;;;8.90;;
50092;SDS011;35974;47.752;10.290;2022-07-23T08:25:35;13.70;;;9.18;;
50092;SDS011;35974;47.752;10.290;2022-07-23T08:28:04;10.30;;;8.07;;
50092;SDS011;35974;47.752;10.290;2022-07-23T08:30:33;13.55;;;8.20;;
50092;SDS011;35974;47.752;10.290;2022-07-23T08:33:04;10.73;;;8.50;;
50092;SDS011;35974;47.752;10.290;2022-07-23T08:35:56;9.18;;;8.07;;
50092;SDS011;35974;47.752;10.290;2022-07-23T08:38:23;8.73;;;7.82;;
50092;SDS011;35974;47.752;10.290;2022-07-23T08:40:52;9.85;;;8.27;;
50092;SDS011;35974;47.752;10.290;2022-07-23T08:43:24;11.45;;;8.40;;
50092;SDS011;35974;47.752;10.290;2022-07-23T08:45:53;9.82;;;7.72;;
50092;SDS011;35974;47.752;10.290;2022-07-23T08:48:23;10.60;;;8.07;;
50092;SDS011;35974;47.752;10.290;2022-07-23T08:50:54;10.68;;;8.27;;
50092;SDS011;35974;47.752;10.290;2022-07-23T08:53:24;9.07;;;8.18;;
50092;SDS011;35974;47.752;10.290;2022-07-23T08:55:53;8.60;;;7.38;;
50092;SDS011;35974;47.752;10.290;2022-07-23T08:58:21;8.68;;;7.40;;
50092;SDS011;35974;47.752;10.290;2022-07-23T09:00:54;8.13;;;6.55;;
50092;SDS011;35974;47.752;10.290;2022-07-23T09:03:23;8.82;;;6.68;;
50092;SDS011;35974;47.752;10.290;2022-07-23T09:05:55;9.30;;;6.25;;
50092;SDS011;35974;47.752;10.290;2022-07-23T09:08:36;8.38;;;6.25;;
50092;SDS011;35974;47.752;10.290;2022-07-23T09:11:09;6.70;;;6.00;;
50092;SDS011;35974;47.752;10.290;2022-07-23T09:13:41;6.75;;;5.50;;
50092;SDS011;35974;47.752;10.290;2022-07-23T09:16:19;7.55;;;6.75;;
50092;SDS011;35974;47.752;10.290;2022-07-23T09:18:51;10.48;;;7.50;;
50092;SDS011;35974;47.752;10.290;2022-07-23T09:21:26;7.50;;;6.70;;
50092;SDS011;35974;47.752;10.290;2022-07-23T09:24:02;7.17;;;6.30;;
50092;SDS011;35974;47.752;10.290;2022-07-23T09:26:31;10.20;;;6.07;;
50092;SDS011;35974;47.752;10.290;2022-07-23T09:31:58;7.75;;;5.50;;
50092;SDS011;35974;47.752;10.290;2022-07-23T09:34:33;7.60;;;5.60;;
50092;SDS011;35974;47.752;10.290;2022-07-23T09:37:13;8.32;;;5.32;;
50092;SDS011;35974;47.752;10.290;2022-07-23T09:39:45;6.60;;;5.95;;
50092;SDS011;35974;47.752;10.290;2022-07-23T09:44:48;8.10;;;6.10;;
50092;SDS011;35974;47.752;10.290;2022-07-23T09:47:17;7.53;;;5.53;;
50092;SDS011;35974;47.752;10.290;2022-07-23T09:52:35;8.45;;;6.45;;
50092;SDS011;35974;47.752;10.290;2022-07-23T09:55:11;10.52;;;6.60;;
50092;SDS011;35974;47.752;10.290;2022-07-23T09:57:38;7.97;;;6.10;;
50092;SDS011;35974;47.752;10.290;2022-07-23T10:00:07;7.93;;;6.15;;
50092;SDS011;35974;47.752;10.290;2022-07-23T10:02:36;7.15;;;6.28;;
50092;SDS011;35974;47.752;10.290;2022-07-23T10:05:04;10.20;;;6.60;;
50092;SDS011;35974;47.752;10.290;2022-07-23T10:07:32;7.78;;;6.10;;
50092;SDS011;35974;47.752;10.290;2022-07-23T10:10:05;8.13;;;6.53;;
50092;SDS011;35974;47.752;10.290;2022-07-23T10:12:32;8.27;;;6.40;;
50092;SDS011;35974;47.752;10.290;2022-07-23T10:15:05;10.27;;;6.68;;
50092;SDS011;35974;47.752;10.290;2022-07-23T10:17:34;7.88;;;6.72;;
50092;SDS011;35974;47.752;10.290;2022-07-23T10:20:01;9.43;;;6.65;;
50092;SDS011;35974;47.752;10.290;2022-07-23T10:22:30;9.25;;;6.75;;
50092;SDS011;35974;47.752;10.290;2022-07-23T10:38:58;7.85;;;6.10;;
50092;SDS011;35974;47.752;10.290;2022-07-23T10:41:48;8.55;;;5.47;;
50092;SDS011;35974;47.752;10.290;2022-07-23T10:44:18;9.52;;;6.07;;
50092;SDS011;35974;47.752;10.290;2022-07-23T10:46:53;7.10;;;6.00;;
50092;SDS011;35974;47.752;10.290;2022-07-23T10:49:44;7.32;;;5.50;;
50092;SDS011;35974;47.752;10.290;2022-07-23T10:54:42;9.60;;;6.28;;
50092;SDS011;35974;47.752;10.290;2022-07-23T10:57:10;8.90;;;6.47;;
50092;SDS011;35974;47.752;10.290;2022-07-23T11:02:35;8.13;;;4.93;;
50092;SDS011;35974;47.752;10.290;2022-07-23T11:05:10;5.82;;;4.57;;
50092;SDS011;35974;47.752;10.290;2022-07-23T11:08:09;4.85;;;4.18;;
50092;SDS011;35974;47.752;10.290;2022-07-23T11:10:38;4.93;;;4.13;;
50092;SDS011;35974;47.752;10.290;2022-07-23T11:23:58;5.47;;;4.45;;
50092;SDS011;35974;47.752;10.290;2022-07-23T11:34:40;7.22;;;4.50;;
50092;SDS011;35974;47.752;10.290;2022-07-23T11:37:08;5.43;;;4.40;;
50092;SDS011;35974;47.752;10.290;2022-07-23T11:42:07;5.30;;;4.40;;
50092;SDS011;35974;47.752;10.290;2022-07-23T11:44:38;5.43;;;4.60;;
50092;SDS011;35974;47.752;10.290;2022-07-23T11:47:06;5.90;;;4.78;;
50092;SDS011;35974;47.752;10.290;2022-07-23T11:49:35;8.02;;;5.65;;
50092;SDS011;35974;47.752;10.290;2022-07-23T11:52:06;7.43;;;4.70;;
50092;SDS011;35974;47.752;10.290;2022-07-23T11:54:36;5.93;;;4.45;;
50092;SDS011;35974;47.752;10.290;2022-07-23T11:57:13;13.30;;;9.23;;
50092;SDS011;35974;47.752;10.290;2022-07-23T11:59:41;15.05;;;9.68;;
50092;SDS011;35974;47.752;10.290;2022-07-23T12:02:09;8.23;;;5.97;;
50092;SDS011;35974;47.752;10.290;2022-07-23T12:04:47;21.30;;;13.00;;
50092;SDS011;35974;47.752;10.290;2022-07-23T12:07:26;21.20;;;14.43;;
50092;SDS011;35974;47.752;10.290;2022-07-23T12:09:55;26.25;;;17.38;;
50092;SDS011;35974;47.752;10.290;2022-07-23T12:12:24;21.27;;;12.95;;
50092;SDS011;35974;47.752;10.290;2022-07-23T12:14:58;15.25;;;9.80;;
50092;SDS011;35974;47.752;10.290;2022-07-23T12:17:28;12.00;;;7.25;;
50092;SDS011;35974;47.752;10.290;2022-07-23T12:19:57;7.78;;;6.55;;
50092;SDS011;35974;47.752;10.290;2022-07-23T12:22:26;5.90;;;5.30;;
50092;SDS011;35974;47.752;10.290;2022-07-23T12:25:01;7.43;;;5.95;;
50092;SDS011;35974;47.752;10.290;2022-07-23T12:27:30;7.15;;;5.82;;
50092;SDS011;35974;47.752;10.290;2022-07-23T12:29:57;6.32;;;5.25;;
50092;SDS011;35974;47.752;10.290;2022-07-23T12:32:27;7.65;;;5.55;;
50092;SDS011;35974;47.752;10.290;2022-07-23T12:35:03;6.82;;;5.82;;
50092;SDS011;35974;47.752;10.290;2022-07-23T12:37:31;9.25;;;6.47;;
50092;SDS011;35974;47.752;10.290;2022-07-23T12:40:17;8.27;;;5.82;;
50092;SDS011;35974;47.752;10.290;2022-07-23T12:42:59;6.30;;;5.40;;
50092;SDS011;35974;47.752;10.290;2022-07-23T12:45:52;6.35;;;5.60;;
50092;SDS011;35974;47.752;10.290;2022-07-23T12:48:18;10.23;;;6.20;;
50092;SDS011;35974;47.752;10.290;2022-07-23T12:51:06;6.85;;;5.93;;
50092;SDS011;35974;47.752;10.290;2022-07-23T12:53:48;7.88;;;5.82;;
50092;SDS011;35974;47.752;10.290;2022-07-23T12:56:20;6.40;;;5.40;;
50092;SDS011;35974;47.752;10.290;2022-07-23T12:58:54;7.95;;;6.05;;
50092;SDS011;35974;47.752;10.290;2022-07-23T13:01:25;8.68;;;6.00;;
50092;SDS011;35974;47.752;10.290;2022-07-23T13:03:55;8.45;;;5.93;;
50092;SDS011;35974;47.752;10.290;2022-07-23T13:06:44;6.68;;;5.72;;
50092;SDS011;35974;47.752;10.290;2022-07-23T13:09:15;6.68;;;5.45;;
50092;SDS011;35974;47.752;10.290;2022-07-23T13:11:47;7.40;;;5.35;;
50092;SDS011;35974;47.752;10.290;2022-07-23T13:14:15;10.43;;;5.43;;
50092;SDS011;35974;47.752;10.290;2022-07-23T13:16:47;6.53;;;5.53;;
50092;SDS011;35974;47.752;10.290;2022-07-23T13:19:14;7.63;;;4.95;;
50092;SDS011;35974;47.752;10.290;2022-07-23T13:21:44;8.98;;;5.72;;
50092;SDS011;35974;47.752;10.290;2022-07-23T13:24:11;6.63;;;5.68;;
50092;SDS011;35974;47.752;10.290;2022-07-23T13:26:39;7.95;;;6.00;;
50092;SDS011;35974;47.752;10.290;2022-07-23T13:29:06;6.53;;;5.88;;
50092;SDS011;35974;47.752;10.290;2022-07-23T13:31:36;8.43;;;5.75;;
50092;SDS011;35974;47.752;10.290;2022-07-23T13:34:04;6.85;;;5.80;;
50092;SDS011;35974;47.752;10.290;2022-07-23T13:36:33;7.28;;;5.43;;
50092;SDS011;35974;47.752;10.290;2022-07-23T13:39:00;5.97;;;4.93;;
50092;SDS011;35974;47.752;10.290;2022-07-23T13:41:27;6.50;;;4.70;;
50092;SDS011;35974;47.752;10.290;2022-07-23T13:43:54;6.85;;;5.05;;
50092;SDS011;35974;47.752;10.290;2022-07-23T13:46:23;7.22;;;4.80;;
50092;SDS011;35974;47.752;10.290;2022-07-23T13:48:50;6.72;;;5.15;;
50092;SDS011;35974;47.752;10.290;2022-07-23T13:51:17;5.85;;;5.22;;
50092;SDS011;35974;47.752;10.290;2022-07-23T13:53:45;5.15;;;4.53;;
50092;SDS011;35974;47.752;10.290;2022-07-23T13:56:12;5.30;;;4.53;;
50092;SDS011;35974;47.752;10.290;2022-07-23T13:58:38;5.80;;;5.03;;
50092;SDS011;35974;47.752;10.290;2022-07-23T14:01:06;5.13;;;4.53;;
50092;SDS011;35974;47.752;10.290;2022-07-23T14:03:33;4.93;;;4.32;;
50092;SDS011;35974;47.752;10.290;2022-07-23T14:06:00;4.47;;;4.07;;
50092;SDS011;35974;47.752;10.290;2022-07-23T14:08:26;5.07;;;4.55;;
50092;SDS011;35974;47.752;10.290;2022-07-23T14:10:53;6.45;;;4.60;;
50092;SDS011;35974;47.752;10.290;2022-07-23T14:13:19;6.38;;;4.70;;
50092;SDS011;35974;47.752;10.290;2022-07-23T14:15:47;5.85;;;4.35;;
50092;SDS011;35974;47.752;10.290;2022-07-23T14:18:13;6.05;;;4.75;;
50092;SDS011;35974;47.752;10.290;2022-07-23T14:20:40;5.60;;;4.60;;
50092;SDS011;35974;47.752;10.290;2022-07-23T14:23:06;5.45;;;4.95;;
50092;SDS011;35974;47.752;10.290;2022-07-23T14:25:33;5.90;;;4.90;;
50092;SDS011;35974;47.752;10.290;2022-07-23T14:28:00;9.35;;;5.20;;
50092;SDS011;35974;47.752;10.290;2022-07-23T14:30:27;5.75;;;4.80;;
50092;SDS011;35974;47.752;10.290;2022-07-23T14:33:01;5.82;;;5.10;;
50092;SDS011;35974;47.752;10.290;2022-07-23T14:35:28;6.40;;;5.32;;
50092;SDS011;35974;47.752;10.290;2022-07-23T14:37:54;6.40;;;4.97;;
50092;SDS011;35974;47.752;10.290;2022-07-23T14:40:23;6.25;;;5.53;;
50092;SDS011;35974;47.752;10.290;2022-07-23T14:42:50;6.13;;;5.18;;
50092;SDS011;35974;47.752;10.290;2022-07-23T14:45:17;6.68;;;5.35;;
50092;SDS011;35974;47.752;10.290;2022-07-23T14:47:44;6.55;;;5.35;;
50092;SDS011;35974;47.752;10.290;2022-07-23T14:50:12;6.00;;;5.40;;
50092;SDS011;35974;47.752;10.290;2022-07-23T14:52:39;6.63;;;5.57;;
50092;SDS011;35974;47.752;10.290;2022-07-23T14:55:06;7.05;;;5.78;;
50092;SDS011;35974;47.752;10.290;2022-07-23T14:57:33;5.97;;;5.22;;
50092;SDS011;35974;47.752;10.290;2022-07-23T15:00:00;7.28;;;5.70;;
50092;SDS011;35974;47.752;10.290;2022-07-23T15:02:31;7.28;;;5.80;;
50092;SDS011;35974;47.752;10.290;2022-07-23T15:04:57;6.72;;;5.88;;
50092;SDS011;35974;47.752;10.290;2022-07-23T15:07:28;7.78;;;5.72;;
50092;SDS011;35974;47.752;10.290;2022-07-23T15:09:56;6.75;;;5.80;;
50092;SDS011;35974;47.752;10.290;2022-07-23T15:12:25;6.00;;;5.43;;
50092;SDS011;35974;47.752;10.290;2022-07-23T15:14:53;6.13;;;5.50;;
50092;SDS011;35974;47.752;10.290;2022-07-23T15:17:22;6.82;;;5.45;;
50092;SDS011;35974;47.752;10.290;2022-07-23T15:19:54;6.40;;;5.68;;
50092;SDS011;35974;47.752;10.290;2022-07-23T15:22:20;6.25;;;5.65;;
50092;SDS011;35974;47.752;10.290;2022-07-23T15:24:48;7.47;;;5.70;;